createdAt,value
2019-05-29T00:01:00.577Z,3.17
2019-05-29T00:03:33.235Z,2.87
2019-05-29T00:06:06.224Z,3.00
2019-05-29T00:08:39.128Z,2.60
2019-05-29T00:11:12.235Z,3.07
2019-05-29T00:13:45.085Z,2.43
2019-05-29T00:16:18.992Z,3.17
2019-05-29T00:18:51.205Z,3.23
2019-05-29T00:21:23.833Z,2.70
2019-05-29T00:23:56.718Z,3.20
2019-05-29T00:26:29.420Z,3.23
2019-05-29T00:29:03.509Z,2.63
2019-05-29T00:31:36.188Z,2.53
2019-05-29T00:34:08.980Z,1.90
2019-05-29T00:36:41.752Z,2.33
2019-05-29T00:39:14.846Z,2.10
2019-05-29T00:41:47.724Z,2.37
2019-05-29T00:44:33.563Z,2.57
2019-05-29T00:46:54.517Z,1.97
2019-05-29T00:49:27.091Z,2.10
2019-05-29T00:51:59.778Z,3.10
2019-05-29T00:54:32.348Z,2.70
2019-05-29T00:57:05.079Z,2.13
2019-05-29T00:59:37.809Z,2.13
2019-05-29T01:02:11.781Z,2.50
2019-05-29T01:04:44.508Z,2.07
2019-05-29T01:07:16.759Z,2.57
2019-05-29T01:09:49.344Z,2.83
2019-05-29T01:12:22.026Z,2.30
2019-05-29T01:14:54.439Z,2.20
2019-05-29T01:17:28.019Z,2.57
2019-05-29T01:20:01.396Z,2.53
2019-05-29T01:22:33.958Z,2.53
2019-05-29T01:25:07.675Z,2.60
2019-05-29T01:27:40.350Z,2.40
2019-05-29T01:30:15.053Z,2.30
2019-05-29T01:32:48.945Z,2.60
2019-05-29T01:35:22.019Z,2.30
2019-05-29T01:37:54.958Z,2.33
2019-05-29T01:40:29.453Z,2.70
2019-05-29T01:43:03.191Z,2.90
2019-05-29T01:45:35.754Z,2.60
2019-05-29T01:48:08.542Z,2.37
2019-05-29T01:50:41.114Z,3.00
2019-05-29T01:53:13.817Z,2.70
2019-05-29T01:55:46.372Z,2.13
2019-05-29T01:58:20.451Z,2.30
2019-05-29T02:00:53.341Z,2.73
2019-05-29T02:03:25.948Z,2.03
2019-05-29T02:05:58.523Z,1.83
2019-05-29T02:08:31.199Z,2.40
2019-05-29T02:11:03.780Z,2.70
2019-05-29T02:13:36.245Z,2.50
2019-05-29T02:16:08.828Z,2.17
2019-05-29T02:18:41.507Z,2.30
2019-05-29T02:21:14.083Z,2.30
2019-05-29T02:23:46.767Z,1.80
2019-05-29T02:26:20.397Z,2.00
2019-05-29T02:28:53.146Z,2.10
2019-05-29T02:31:28.219Z,1.60
2019-05-29T02:34:00.042Z,2.27
2019-05-29T02:36:33.137Z,2.43
2019-05-29T02:39:08.683Z,2.10
2019-05-29T02:41:41.564Z,2.07
2019-05-29T02:44:14.292Z,1.83
2019-05-29T02:46:46.921Z,1.90
2019-05-29T02:49:20.064Z,2.40
2019-05-29T02:51:53.715Z,2.27
2019-05-29T02:54:27.196Z,2.17
2019-05-29T02:57:00.603Z,2.03
2019-05-29T02:59:33.284Z,1.87
2019-05-29T03:02:05.868Z,2.00
2019-05-29T03:04:38.542Z,2.13
2019-05-29T03:07:11.117Z,1.90
2019-05-29T03:09:44.329Z,2.00
2019-05-29T03:12:16.884Z,2.10
2019-05-29T03:14:49.589Z,2.00
2019-05-29T03:17:23.491Z,2.40
2019-05-29T03:19:55.972Z,1.90
2019-05-29T03:22:29.252Z,2.10
2019-05-29T03:25:02.601Z,1.97
2019-05-29T03:27:38.032Z,2.37
2019-05-29T03:30:10.533Z,2.20
2019-05-29T03:32:47.865Z,2.37
2019-05-29T03:35:17.652Z,2.13
2019-05-29T03:37:50.739Z,1.60
2019-05-29T03:40:23.421Z,2.10
2019-05-29T03:42:57.233Z,2.00
2019-05-29T03:45:31.317Z,2.20
2019-05-29T03:48:03.950Z,2.03
2019-05-29T03:50:36.406Z,2.07
2019-05-29T03:53:09.067Z,1.67
2019-05-29T03:55:41.748Z,1.90
2019-05-29T03:58:14.325Z,2.13
2019-05-29T04:00:48.793Z,2.23
2019-05-29T04:03:21.222Z,2.20
2019-05-29T04:05:53.896Z,2.33
2019-05-29T04:08:27.449Z,2.27
2019-05-29T04:11:02.022Z,2.43
2019-05-29T04:13:36.108Z,2.03
2019-05-29T04:16:11.242Z,2.10
2019-05-29T04:18:44.259Z,2.37
2019-05-29T04:21:18.572Z,2.30
2019-05-29T04:23:53.315Z,2.00
2019-05-29T04:26:28.062Z,2.30
2019-05-29T04:29:01.425Z,2.93
2019-05-29T04:31:34.455Z,2.67
2019-05-29T04:34:07.497Z,2.30
2019-05-29T04:36:40.080Z,2.60
2019-05-29T04:39:12.334Z,2.50
2019-05-29T04:41:44.871Z,2.10
2019-05-29T04:44:18.526Z,2.17
2019-05-29T04:47:08.960Z,2.13
2019-05-29T04:49:25.423Z,2.10
2019-05-29T04:51:58.096Z,2.30
2019-05-29T04:54:31.100Z,2.40
2019-05-29T04:57:03.764Z,2.37
2019-05-29T04:59:37.123Z,2.20
2019-05-29T05:02:09.738Z,2.63
2019-05-29T05:04:42.417Z,2.40
2019-05-29T05:07:15.092Z,2.77
2019-05-29T05:09:47.772Z,2.50
2019-05-29T05:12:20.771Z,2.00
2019-05-29T05:14:53.646Z,2.50
2019-05-29T05:17:26.821Z,2.40
2019-05-29T05:20:00.942Z,2.17
2019-05-29T05:22:34.286Z,2.37
2019-05-29T05:25:10.091Z,2.47
2019-05-29T05:27:42.668Z,2.30
2019-05-29T05:30:16.991Z,2.50
2019-05-29T05:32:49.565Z,2.67
2019-05-29T05:35:22.863Z,2.50
2019-05-29T05:37:55.105Z,2.83
2019-05-29T05:40:27.713Z,2.40
2019-05-29T05:42:59.953Z,2.20
2019-05-29T05:45:35.022Z,2.37
2019-05-29T05:48:07.695Z,2.40
2019-05-29T05:50:41.574Z,2.40
2019-05-29T05:53:14.412Z,2.80
2019-05-29T05:55:47.652Z,1.93
2019-05-29T05:58:20.249Z,2.50
2019-05-29T06:00:53.041Z,2.10
2019-05-29T06:03:25.714Z,2.33
2019-05-29T06:05:58.389Z,2.20
2019-05-29T06:08:31.917Z,2.17
2019-05-29T06:11:04.767Z,2.13
2019-05-29T06:13:36.987Z,2.10
2019-05-29T06:16:09.616Z,1.97
2019-05-29T06:18:43.034Z,2.10
2019-05-29T06:21:16.611Z,1.93
2019-05-29T06:23:49.190Z,1.73
2019-05-29T06:26:21.872Z,2.57
2019-05-29T06:28:54.445Z,2.17
2019-05-29T06:31:27.496Z,2.63
2019-05-29T06:34:00.424Z,2.63
2019-05-29T06:36:35.223Z,2.30
2019-05-29T06:39:09.363Z,2.47
2019-05-29T06:41:42.112Z,2.20
2019-05-29T06:44:15.027Z,2.00
2019-05-29T06:46:47.707Z,2.33
2019-05-29T06:49:20.279Z,1.93
2019-05-29T06:51:52.961Z,1.90
2019-05-29T06:54:25.537Z,1.67
2019-05-29T06:56:58.425Z,1.67
2019-05-29T06:59:31.000Z,1.87
2019-05-29T07:02:04.087Z,2.00
2019-05-29T07:04:36.969Z,1.53
2019-05-29T07:07:09.618Z,1.70
2019-05-29T07:09:43.047Z,1.53
2019-05-29T07:12:15.397Z,1.70
2019-05-29T07:14:48.097Z,1.90
2019-05-29T07:17:20.778Z,1.50
2019-05-29T07:20:02.878Z,1.60
2019-05-29T07:22:27.603Z,1.50
2019-05-29T07:25:00.338Z,1.70
2019-05-29T07:27:33.170Z,1.90
2019-05-29T07:30:08.358Z,1.47
2019-05-29T07:32:42.503Z,1.60
2019-05-29T07:35:15.405Z,1.60
2019-05-29T07:37:48.061Z,1.43
2019-05-29T07:40:21.172Z,1.67
2019-05-29T07:42:56.772Z,1.73
2019-05-29T07:45:28.372Z,1.60
2019-05-29T07:48:00.598Z,1.40
2019-05-29T07:50:33.226Z,1.80
2019-05-29T07:53:05.451Z,1.43
2019-05-29T07:55:38.508Z,1.63
2019-05-29T07:58:11.269Z,1.40
2019-05-29T08:01:06.771Z,1.43
2019-05-29T08:03:19.511Z,1.50
2019-05-29T08:05:53.350Z,1.43
2019-05-29T08:08:26.275Z,1.50
2019-05-29T08:10:58.970Z,1.40
2019-05-29T08:13:31.651Z,1.40
2019-05-29T08:16:04.678Z,2.30
2019-05-29T08:18:41.094Z,1.47
2019-05-29T08:21:12.781Z,1.70
2019-05-29T08:23:46.407Z,1.50
2019-05-29T08:26:19.336Z,1.70
2019-05-29T08:28:51.918Z,1.50
2019-05-29T08:31:24.904Z,1.90
2019-05-29T08:33:57.484Z,1.80
2019-05-29T08:36:30.640Z,1.83
2019-05-29T08:39:03.242Z,1.60
2019-05-29T08:41:35.923Z,1.50
2019-05-29T08:44:08.693Z,1.73
2019-05-29T08:46:58.205Z,1.50
2019-05-29T08:49:16.205Z,1.53
2019-05-29T08:51:49.998Z,1.50
2019-05-29T08:54:24.472Z,1.50
2019-05-29T08:56:57.311Z,1.30
2019-05-29T08:59:29.867Z,1.27
2019-05-29T09:02:02.593Z,1.20
2019-05-29T09:04:35.254Z,1.20
2019-05-29T09:07:07.943Z,1.40
2019-05-29T09:09:40.626Z,1.50
2019-05-29T09:12:13.441Z,1.27
2019-05-29T09:14:46.072Z,1.30
2019-05-29T09:17:20.057Z,1.10
2019-05-29T09:19:52.664Z,1.33
2019-05-29T09:22:25.334Z,1.30
2019-05-29T09:24:57.900Z,1.20
2019-05-29T09:27:30.709Z,1.20
2019-05-29T09:30:03.142Z,1.40
2019-05-29T09:32:49.331Z,1.37
2019-05-29T09:35:11.311Z,1.23
2019-05-29T09:37:43.973Z,1.20
2019-05-29T09:40:21.087Z,1.33
2019-05-29T09:42:54.150Z,1.40
2019-05-29T09:45:26.823Z,1.23
2019-05-29T09:47:59.377Z,1.30
2019-05-29T09:50:48.948Z,1.40
2019-05-29T09:53:06.289Z,1.10
2019-05-29T09:55:38.980Z,1.20
2019-05-29T09:58:11.649Z,1.40
2019-05-29T10:00:44.230Z,1.43
2019-05-29T10:03:16.910Z,1.50
2019-05-29T10:05:49.593Z,1.10
2019-05-29T10:08:22.267Z,1.17
2019-05-29T10:11:03.849Z,1.20
2019-05-29T10:13:29.200Z,1.27
2019-05-29T10:16:02.881Z,1.10
2019-05-29T10:18:35.752Z,1.17
2019-05-29T10:21:08.683Z,1.20
2019-05-29T10:23:41.329Z,1.30
2019-05-29T10:26:13.987Z,1.30
2019-05-29T10:29:02.138Z,1.20
2019-05-29T10:31:20.778Z,1.20
2019-05-29T10:33:53.577Z,1.10
2019-05-29T10:36:26.267Z,1.10
2019-05-29T10:38:58.861Z,1.10
2019-05-29T10:41:31.089Z,1.10
2019-05-29T10:44:03.874Z,1.30
2019-05-29T10:46:36.870Z,1.10
2019-05-29T10:49:10.674Z,1.40
2019-05-29T10:52:00.250Z,1.23
2019-05-29T10:54:17.219Z,1.13
2019-05-29T10:56:50.833Z,1.20
2019-05-29T10:59:23.842Z,1.20
2019-05-29T11:01:56.424Z,1.40
2019-05-29T11:04:29.420Z,1.40
2019-05-29T11:07:01.646Z,1.17
2019-05-29T11:09:43.822Z,1.17
2019-05-29T11:12:08.569Z,1.20
2019-05-29T11:14:41.310Z,1.00
2019-05-29T11:17:14.639Z,1.30
2019-05-29T11:19:47.317Z,1.17
2019-05-29T11:22:26.395Z,1.40
2019-05-29T11:24:54.166Z,1.47
2019-05-29T11:27:27.006Z,1.30
2019-05-29T11:29:59.771Z,1.40
2019-05-29T11:32:34.088Z,1.60
2019-05-29T11:35:08.232Z,1.27
2019-05-29T11:37:40.988Z,1.20
2019-05-29T11:40:15.648Z,1.23
2019-05-29T11:42:50.806Z,1.10
2019-05-29T11:45:24.037Z,0.90
2019-05-29T11:47:58.945Z,1.13
2019-05-29T11:50:30.804Z,0.90
2019-05-29T11:53:03.716Z,1.10
2019-05-29T11:55:36.403Z,1.10
2019-05-29T11:58:09.664Z,0.97
2019-05-29T12:00:43.503Z,0.83
2019-05-29T12:03:16.185Z,1.00
2019-05-29T12:05:48.853Z,1.10
2019-05-29T12:08:21.738Z,1.13
2019-05-29T12:10:55.347Z,1.07
2019-05-29T12:13:28.270Z,0.90
2019-05-29T12:16:01.926Z,1.00
2019-05-29T12:18:34.837Z,0.90
2019-05-29T12:21:09.140Z,1.03
2019-05-29T12:23:41.800Z,0.90
2019-05-29T12:26:22.405Z,0.87
2019-05-29T12:28:48.917Z,1.00
2019-05-29T12:31:21.583Z,1.00
2019-05-29T12:33:54.975Z,0.90
2019-05-29T12:36:27.761Z,1.10
2019-05-29T12:39:02.232Z,0.70
2019-05-29T12:41:35.573Z,1.20
2019-05-29T12:44:08.569Z,0.67
2019-05-29T12:46:41.255Z,1.00
2019-05-29T12:49:13.928Z,0.90
2019-05-29T12:51:46.612Z,0.80
2019-05-29T12:54:19.195Z,1.00
2019-05-29T12:56:51.990Z,0.83
2019-05-29T12:59:24.642Z,0.80
2019-05-29T13:01:58.441Z,1.07
2019-05-29T13:04:31.125Z,0.87
2019-05-29T13:07:04.687Z,0.90
2019-05-29T13:09:37.427Z,0.90
2019-05-29T13:12:10.514Z,0.93
2019-05-29T13:14:43.223Z,0.70
2019-05-29T13:17:16.057Z,0.87
2019-05-29T13:19:48.645Z,0.93
2019-05-29T13:22:21.315Z,1.00
2019-05-29T13:24:55.110Z,1.20
2019-05-29T13:27:28.320Z,0.90
2019-05-29T13:30:03.560Z,0.80
2019-05-29T13:32:35.197Z,0.90
2019-05-29T13:35:10.346Z,0.93
2019-05-29T13:37:42.630Z,1.03
2019-05-29T13:40:16.427Z,0.90
2019-05-29T13:42:49.106Z,0.70
2019-05-29T13:45:22.088Z,0.77
2019-05-29T13:47:54.967Z,0.80
2019-05-29T13:50:27.696Z,0.93
2019-05-29T13:53:01.309Z,0.97
2019-05-29T13:55:33.932Z,1.00
2019-05-29T13:58:06.313Z,0.80
2019-05-29T14:00:38.994Z,0.80
2019-05-29T14:03:11.963Z,0.80
2019-05-29T14:05:44.211Z,0.70
2019-05-29T14:08:16.905Z,1.07
2019-05-29T14:10:49.902Z,0.83
2019-05-29T14:13:22.571Z,1.03
2019-05-29T14:15:55.158Z,0.90
2019-05-29T14:18:28.549Z,0.90
2019-05-29T14:21:01.130Z,0.80
2019-05-29T14:23:33.819Z,1.00
2019-05-29T14:26:08.488Z,0.80
2019-05-29T14:28:41.319Z,0.70
2019-05-29T14:31:14.094Z,0.90
2019-05-29T14:33:46.782Z,1.10
2019-05-29T14:36:19.761Z,1.07
2019-05-29T14:38:52.454Z,0.87
2019-05-29T14:41:25.135Z,1.00
2019-05-29T14:43:58.219Z,0.80
2019-05-29T14:46:30.925Z,0.87
2019-05-29T14:49:04.317Z,0.83
2019-05-29T14:51:37.267Z,0.87
2019-05-29T14:54:11.023Z,0.70
2019-05-29T14:56:43.524Z,1.00
2019-05-29T14:59:16.641Z,0.93
2019-05-29T15:01:51.298Z,0.80
2019-05-29T15:04:23.238Z,1.27
2019-05-29T15:06:55.805Z,1.97
2019-05-29T15:09:28.486Z,2.40
2019-05-29T15:12:01.063Z,1.23
2019-05-29T15:14:33.763Z,1.90
2019-05-29T15:17:07.069Z,1.10
2019-05-29T15:19:40.125Z,0.90
2019-05-29T15:22:14.230Z,1.00
2019-05-29T15:25:01.270Z,1.50
2019-05-29T15:27:20.946Z,1.70
2019-05-29T15:29:53.208Z,3.37
2019-05-29T15:32:26.075Z,4.50
2019-05-29T15:34:58.757Z,1.53
2019-05-29T15:37:31.631Z,1.40
2019-05-29T15:40:06.600Z,1.57
2019-05-29T15:42:40.578Z,1.80
2019-05-29T15:45:15.936Z,1.20
2019-05-29T15:47:48.754Z,0.90
2019-05-29T15:50:21.598Z,2.53
2019-05-29T15:52:55.131Z,1.13
2019-05-29T15:55:33.544Z,1.27
2019-05-29T15:58:02.102Z,1.43
2019-05-29T16:00:35.180Z,0.97
2019-05-29T16:03:09.531Z,1.60
2019-05-29T16:05:42.738Z,1.20
2019-05-29T16:08:16.850Z,1.73
2019-05-29T16:10:49.336Z,1.90
2019-05-29T16:13:21.948Z,1.13
2019-05-29T16:15:54.932Z,4.60
2019-05-29T16:18:29.678Z,6.27
2019-05-29T16:21:02.150Z,1.00
2019-05-29T16:23:36.085Z,1.20
2019-05-29T16:26:11.003Z,1.10
2019-05-29T16:28:43.969Z,3.50
2019-05-29T16:31:16.897Z,2.50
2019-05-29T16:33:49.522Z,5.73
2019-05-29T16:36:22.520Z,1.43
2019-05-29T16:38:55.187Z,1.10
2019-05-29T16:41:27.955Z,1.60
2019-05-29T16:44:00.648Z,3.27
2019-05-29T16:46:33.382Z,2.23
2019-05-29T16:49:06.325Z,2.00
2019-05-29T16:51:41.918Z,1.80
2019-05-29T16:54:13.219Z,2.73
2019-05-29T16:56:47.034Z,12.23
2019-05-29T16:59:19.713Z,6.13
2019-05-29T17:01:52.683Z,5.80
2019-05-29T17:04:25.374Z,2.47
2019-05-29T17:07:00.024Z,1.47
2019-05-29T17:09:32.679Z,1.43
2019-05-29T17:12:05.351Z,1.33
2019-05-29T17:14:37.922Z,1.67
2019-05-29T17:17:10.812Z,1.40
2019-05-29T17:19:43.492Z,1.43
2019-05-29T17:22:16.587Z,2.70
2019-05-29T17:24:48.923Z,2.30
2019-05-29T17:27:22.920Z,2.23
2019-05-29T17:29:56.156Z,4.37
2019-05-29T17:32:29.134Z,6.40
2019-05-29T17:35:03.827Z,2.87
2019-05-29T17:37:36.957Z,2.23
2019-05-29T17:40:10.762Z,2.10
2019-05-29T17:42:43.412Z,1.80
2019-05-29T17:45:20.911Z,2.47
2019-05-29T17:47:50.540Z,1.90
2019-05-29T17:50:26.343Z,1.13
2019-05-29T17:52:57.740Z,1.10
2019-05-29T17:55:30.427Z,1.40
2019-05-29T17:58:03.090Z,1.40
2019-05-29T18:00:36.185Z,1.27
2019-05-29T18:03:08.862Z,1.40
2019-05-29T18:05:43.095Z,1.20
2019-05-29T18:08:16.664Z,1.10
2019-05-29T18:10:49.467Z,1.30
2019-05-29T18:13:23.266Z,1.10
2019-05-29T18:15:56.062Z,1.20
2019-05-29T18:18:29.318Z,1.40
2019-05-29T18:21:01.929Z,1.50
2019-05-29T18:23:34.607Z,2.30
2019-05-29T18:26:07.171Z,4.13
2019-05-29T18:28:39.850Z,2.70
2019-05-29T18:31:13.564Z,2.10
2019-05-29T18:33:46.246Z,1.90
2019-05-29T18:36:20.996Z,2.10
2019-05-29T18:38:55.706Z,1.50
2019-05-29T18:41:28.490Z,1.60
2019-05-29T18:44:01.566Z,1.50
2019-05-29T18:46:37.934Z,1.80
2019-05-29T18:49:08.551Z,1.73
2019-05-29T18:51:41.952Z,1.87
2019-05-29T18:54:14.659Z,1.80
2019-05-29T18:57:13.078Z,2.37
2019-05-29T18:59:21.528Z,2.47
2019-05-29T19:01:54.416Z,2.00
2019-05-29T19:04:29.837Z,1.87
2019-05-29T19:07:02.666Z,1.73
2019-05-29T19:09:34.955Z,3.73
2019-05-29T19:12:07.823Z,1.83
2019-05-29T19:14:43.169Z,3.30
2019-05-29T19:17:15.727Z,3.80
2019-05-29T19:19:48.446Z,2.80
2019-05-29T19:22:22.269Z,3.30
2019-05-29T19:24:55.106Z,2.70
2019-05-29T19:27:34.117Z,2.90
2019-05-29T19:30:02.531Z,2.10
2019-05-29T19:32:35.807Z,2.17
2019-05-29T19:35:10.042Z,3.43
2019-05-29T19:37:42.914Z,4.00
2019-05-29T19:40:15.683Z,3.43
2019-05-29T19:42:49.253Z,3.20
2019-05-29T19:45:24.406Z,2.97
2019-05-29T19:47:57.199Z,2.00
2019-05-29T19:50:30.793Z,2.20
2019-05-29T19:53:03.700Z,2.70
2019-05-29T19:55:38.253Z,2.97
2019-05-29T19:58:10.689Z,3.83
2019-05-29T20:00:44.895Z,3.20
2019-05-29T20:03:20.089Z,3.57
2019-05-29T20:05:52.266Z,4.00
2019-05-29T20:08:24.991Z,2.60
2019-05-29T20:10:57.682Z,2.53
2019-05-29T20:13:31.632Z,2.10
2019-05-29T20:16:04.551Z,2.00
2019-05-29T20:18:38.359Z,2.50
2019-05-29T20:21:15.886Z,2.17
2019-05-29T20:23:53.108Z,2.80
2019-05-29T20:26:29.123Z,2.53
2019-05-29T20:29:01.891Z,2.80
2019-05-29T20:31:35.077Z,2.40
2019-05-29T20:34:07.646Z,2.70
2019-05-29T20:36:40.137Z,2.10
2019-05-29T20:39:15.065Z,2.20
2019-05-29T20:41:47.743Z,1.80
2019-05-29T20:44:20.416Z,1.90
2019-05-29T20:46:53.125Z,1.63
2019-05-29T20:49:25.881Z,2.07
2019-05-29T20:51:58.558Z,1.60
2019-05-29T20:54:31.562Z,1.93
2019-05-29T20:57:13.388Z,2.07
2019-05-29T20:59:45.963Z,1.90
2019-05-29T21:02:18.248Z,1.63
2019-05-29T21:04:50.877Z,2.10
2019-05-29T21:07:23.538Z,2.20
2019-05-29T21:09:55.854Z,1.83
2019-05-29T21:12:28.588Z,2.57
2019-05-29T21:15:01.366Z,2.30
2019-05-29T21:17:34.047Z,2.43
2019-05-29T21:20:08.879Z,2.40
2019-05-29T21:22:42.916Z,1.80
2019-05-29T21:25:19.155Z,1.40
2019-05-29T21:27:50.402Z,1.30
2019-05-29T21:30:26.154Z,1.50
2019-05-29T21:32:58.901Z,1.10
2019-05-29T21:35:31.258Z,1.60
2019-05-29T21:38:04.181Z,1.70
2019-05-29T21:40:38.261Z,1.83
2019-05-29T21:43:11.079Z,1.87
2019-05-29T21:45:43.290Z,2.47
2019-05-29T21:48:15.554Z,2.47
2019-05-29T21:50:48.201Z,2.67
2019-05-29T21:53:20.871Z,2.90
2019-05-29T21:55:53.453Z,3.10
2019-05-29T21:58:26.059Z,4.67
2019-05-29T22:00:58.818Z,4.40
2019-05-29T22:03:32.293Z,3.97
2019-05-29T22:06:04.988Z,4.10
2019-05-29T22:08:38.510Z,3.60
2019-05-29T22:11:11.468Z,3.43
2019-05-29T22:13:44.221Z,3.07
2019-05-29T22:16:16.829Z,2.60
2019-05-29T22:18:50.735Z,2.60
2019-05-29T22:21:23.722Z,2.57
2019-05-29T22:23:57.122Z,2.60
2019-05-29T22:26:30.212Z,2.93
2019-05-29T22:29:17.009Z,2.70
2019-05-29T22:31:36.617Z,1.90
2019-05-29T22:34:09.469Z,1.93
2019-05-29T22:36:41.682Z,1.57
2019-05-29T22:39:14.327Z,1.70
2019-05-29T22:41:46.895Z,1.90
2019-05-29T22:44:19.841Z,1.90
2019-05-29T22:46:53.587Z,1.90
2019-05-29T22:49:26.774Z,1.30
2019-05-29T22:51:59.906Z,1.83
2019-05-29T22:54:33.067Z,2.10
2019-05-29T22:57:06.039Z,2.30
2019-05-29T22:59:38.764Z,2.30
2019-05-29T23:02:11.722Z,2.23
2019-05-29T23:04:45.103Z,2.10
2019-05-29T23:07:17.789Z,1.77
2019-05-29T23:09:50.664Z,1.60
2019-05-29T23:12:23.179Z,1.60
2019-05-29T23:14:56.383Z,1.90
2019-05-29T23:17:28.907Z,1.70
2019-05-29T23:20:04.011Z,1.90
2019-05-29T23:22:36.062Z,1.70
2019-05-29T23:25:09.820Z,1.40
2019-05-29T23:27:42.401Z,1.33
2019-05-29T23:30:15.680Z,1.60
2019-05-29T23:32:48.370Z,1.40
2019-05-29T23:35:21.044Z,1.70
2019-05-29T23:37:54.974Z,1.60
2019-05-29T23:40:27.933Z,1.90
2019-05-29T23:43:01.593Z,1.80
2019-05-29T23:45:34.420Z,1.80
2019-05-29T23:48:07.109Z,1.90
2019-05-29T23:50:39.788Z,1.70
2019-05-29T23:53:12.488Z,1.00
2019-05-29T23:55:45.146Z,1.80
2019-05-29T23:58:17.821Z,1.70
